This is the latest recevied weather packets stored in our database for station/object SV9TNF-1. If no packets are shown the sender has not sent any weather packets the latest 1 day(s).
| Time | Temp. | Humidity | Pressure | Rain* | Wind** | Luminosity | Snow |
|---|---|---|---|---|---|---|---|
| 1777990503 | 23.89° C | 39% | 1005.1 hPa | 0 mm | 10.28 m/s, 327° | - | - |
| 1777990203 | 23.89° C | 37% | 1005.1 hPa | 0 mm | 10.28 m/s, 259° | - | - |
| 1777989903 | 24.44° C | 40% | 1005.1 hPa | 0 mm | 9.83 m/s, 236° | - | - |
| 1777989603 | 24.44° C | 41% | 1005.1 hPa | 0 mm | 12.07 m/s, 273° | - | - |
| 1777989303 | 24.44° C | 39% | 1005.1 hPa | 0 mm | 8.05 m/s, 310° | - | - |
| 1777988702 | 23.89° C | 39% | 1005.4 hPa | 0 mm | 11.18 m/s, 335° | - | - |
| 1777988402 | 24.44° C | 36% | 1005.4 hPa | 0 mm | 12.07 m/s, 334° | - | - |
| 1777988102 | 24.44° C | 35% | 1005.4 hPa | 0 mm | 9.83 m/s, 335° | - | - |
| 1777987802 | 23.89° C | 43% | 1005.4 hPa | 0 mm | 11.18 m/s, 308° | - | - |
| 1777987502 | 24.44° C | 39% | 1005.8 hPa | 0 mm | 8.05 m/s, 321° | - | - |
| 1777987202 | 23.89° C | 42% | 1005.8 hPa | 0 mm | 8.94 m/s, 331° | - | - |
| 1777986902 | 23.89° C | 43% | 1005.8 hPa | 0 mm | 8.94 m/s, 309° | - | - |
| 1777986602 | 23.89° C | 40% | 1005.8 hPa | 0 mm | 11.62 m/s, 340° | - | - |
| 1777986302 | 24.44° C | 35% | 1005.8 hPa | 0 mm | 10.28 m/s, 295° | - | - |
| 1777986002 | 24.44° C | 33% | 1005.8 hPa | 0 mm | 8.49 m/s, 302° | - | - |
| 1777985701 | 24.44° C | 34% | 1005.8 hPa | 0 mm | 7.15 m/s, 333° | - | - |
| 1777985401 | 24.44° C | 27% | 1005.8 hPa | 0 mm | 8.94 m/s, 307° | - | - |
| 1777985101 | 24.44° C | 27% | 1005.8 hPa | 0 mm | 12.96 m/s, 338° | - | - |
| 1777984802 | 25.56° C | 27% | 1005.8 hPa | 0 mm | 6.26 m/s, 329° | - | - |
| 1777984501 | 24.44° C | 24% | 1005.8 hPa | 0 mm | 18.78 m/s, 326° | - | - |
| 1777984201 | 25° C | 25% | 1005.8 hPa | 0 mm | 7.15 m/s, 27° | - | - |
| 1777983901 | 25° C | 25% | 1005.8 hPa | 0 mm | 5.81 m/s, 262° | - | - |
| 1777983601 | 25° C | 24% | 1005.8 hPa | 0 mm | 10.73 m/s, 333° | - | - |
| 1777983301 | 25.56° C | 25% | 1005.8 hPa | 0 mm | 4.02 m/s, 337° | - | - |
| 1777983001 | 25.56° C | 22% | 1005.8 hPa | 0 mm | 9.83 m/s, 257° | - | - |
* Rain latest hour (hover to see other rain measurements)
** Current wind speed in m/s (hover to see current wind gust speed)